Time;durP1;ratioP1;P1;durP2;ratioP2;P2;SDS_P1;SDS_P2;PMS_P1;PMS_P2;Temp;Humidity;BMP_temperature;BMP_pressure;BME280_temperature;BME280_humidity;BME280_pressure;Samples;Min_cycle;Max_cycle;Signal;HPM_P1;HPM_P2
2023/07/25 00:01:09;;;;;;;8.52;4.93;;;;;;;28.98;42.96;99270.09;5091894;28;20055;-68
2023/07/25 00:03:37;;;;;;;8.88;5.10;;;;;;;28.97;43.45;99265.66;5091858;28;20126;-69
2023/07/25 00:06:06;;;;;;;7.88;4.55;;;;;;;28.95;43.28;99242.25;5091647;28;20044;-69
2023/07/25 00:08:34;;;;;;;8.88;4.85;;;;;;;28.94;43.12;99235.94;5091592;28;20056;-68
2023/07/25 00:11:02;;;;;;;7.25;4.47;;;;;;;28.93;43.66;99211.47;5091371;28;20048;-68
2023/07/25 00:13:31;;;;;;;8.52;5.00;;;;;;;28.91;43.47;99197.97;5091693;28;20058;-68
2023/07/25 00:15:59;;;;;;;7.72;4.97;;;;;;;28.90;43.57;99168.03;5091546;28;20509;-68
2023/07/25 00:18:32;;;;;;;7.88;5.20;;;;;;;28.89;43.66;99139.75;5091455;28;20044;-69
2023/07/25 00:21:00;;;;;;;8.40;4.82;;;;;;;28.88;43.33;99121.59;5091540;28;20047;-68
2023/07/25 00:23:28;;;;;;;7.82;4.90;;;;;;;28.88;43.37;99131.72;5091285;28;20044;-68
2023/07/25 00:25:56;;;;;;;9.30;5.53;;;;;;;28.87;43.70;99139.13;5091568;28;20075;-68
2023/07/25 00:28:25;;;;;;;8.43;5.15;;;;;;;28.87;43.30;99146.53;5091380;28;20504;-68
2023/07/25 00:30:53;;;;;;;9.07;5.10;;;;;;;28.86;43.77;99155.84;5091534;28;20046;-69
2023/07/25 00:33:21;;;;;;;9.05;4.60;;;;;;;28.84;43.60;99142.34;5091291;28;20044;-68
2023/07/25 00:35:54;;;;;;;8.50;4.68;;;;;;;28.84;43.39;99155.22;5091120;28;20119;-69
2023/07/25 00:38:22;;;;;;;9.10;4.55;;;;;;;28.83;43.53;99154.38;5091466;28;20392;-68
2023/07/25 00:40:51;;;;;;;7.35;4.43;;;;;;;28.81;43.61;99159.28;5091174;28;20036;-69
2023/07/25 00:43:19;;;;;;;8.07;4.68;;;;;;;28.80;43.45;99165.84;5091345;28;20051;-69
2023/07/25 00:45:48;;;;;;;7.18;4.55;;;;;;;28.78;43.29;99182.56;5091370;28;20098;-69
2023/07/25 00:48:17;;;;;;;7.63;4.53;;;;;;;28.76;43.49;99194.84;5091234;28;20052;-69
2023/07/25 00:50:45;;;;;;;7.28;4.18;;;;;;;28.76;43.06;99216.78;5091364;28;20048;-69
2023/07/25 00:53:16;;;;;;;8.35;4.88;;;;;;;28.74;42.97;99227.97;5091301;28;20055;-69
2023/07/25 00:55:45;;;;;;;7.88;4.35;;;;;;;28.73;43.21;99228.22;5091226;28;20206;-69
2023/07/25 00:58:13;;;;;;;8.07;4.68;;;;;;;28.72;43.18;99226.53;5090949;28;20097;-69
2023/07/25 01:00:41;;;;;;;7.55;4.50;;;;;;;28.71;43.50;99238.59;5091103;28;20055;-69
2023/07/25 01:03:10;;;;;;;7.60;4.75;;;;;;;28.70;43.00;99251.47;5094417;28;20051;-69
2023/07/25 01:05:42;;;;;;;7.00;3.97;;;;;;;28.69;43.29;99265.44;5095008;28;20101;-69
2023/07/25 01:08:11;;;;;;;7.53;4.55;;;;;;;28.69;43.28;99265.44;5094985;28;20059;-69
2023/07/25 01:10:41;;;;;;;7.60;4.30;;;;;;;28.70;43.22;99283.56;5094675;28;20060;-69
2023/07/25 01:13:09;;;;;;;7.10;4.10;;;;;;;28.70;42.97;99294.53;5094854;28;20044;-69
2023/07/25 01:15:38;;;;;;;6.90;4.13;;;;;;;28.67;43.10;99301.34;5094676;28;20151;-69
2023/07/25 01:18:08;;;;;;;6.90;4.22;;;;;;;28.67;43.13;99306.84;5094651;28;20607;-69
2023/07/25 01:20:37;;;;;;;6.95;4.18;;;;;;;28.67;43.15;99306.00;5094736;28;20446;-69
2023/07/25 01:23:06;;;;;;;7.35;4.05;;;;;;;28.66;43.20;99312.53;5094789;28;20138;-70
2023/07/25 01:25:36;;;;;;;9.52;4.57;;;;;;;28.64;43.39;99311.94;5094618;28;20068;-69
2023/07/25 01:28:05;;;;;;;8.50;4.53;;;;;;;28.63;43.19;99316.56;5094533;28;20040;-69
2023/07/25 01:30:33;;;;;;;7.13;4.10;;;;;;;28.59;43.35;99315.38;5094783;28;20051;-69
2023/07/25 01:33:01;;;;;;;6.72;4.22;;;;;;;28.59;43.65;99320.03;5094691;28;20048;-69
2023/07/25 01:35:29;;;;;;;9.15;4.38;;;;;;;28.57;44.09;99295.56;5094671;28;20400;-69
2023/07/25 01:37:58;;;;;;;7.25;4.00;;;;;;;28.55;44.15;99280.41;5094611;28;20048;-69
2023/07/25 01:40:26;;;;;;;7.80;4.25;;;;;;;28.54;44.54;99281.47;5094252;28;20138;-69
2023/07/25 01:42:55;;;;;;;6.68;4.10;;;;;;;28.52;44.13;99285.28;5094435;28;20052;-69
2023/07/25 01:45:24;;;;;;;8.07;3.97;;;;;;;28.52;44.77;99270.72;5094448;28;20071;-69
2023/07/25 01:47:52;;;;;;;6.78;3.70;;;;;;;28.50;44.71;99268.22;5094019;28;20044;-69
2023/07/25 01:50:21;;;;;;;7.03;3.90;;;;;;;28.49;44.66;99262.97;5094261;28;20047;-70
2023/07/25 01:52:49;;;;;;;6.47;4.13;;;;;;;28.48;45.07;99221.00;5094220;28;20080;-70
2023/07/25 01:55:17;;;;;;;6.63;3.78;;;;;;;28.46;44.61;99179.25;5094039;28;20101;-69
2023/07/25 01:57:45;;;;;;;6.72;3.63;;;;;;;28.46;44.60;99156.47;5094222;28;20048;-70
2023/07/25 02:00:15;;;;;;;6.85;3.85;;;;;;;28.46;44.94;99159.19;5093923;28;20139;-70
2023/07/25 02:02:44;;;;;;;9.10;4.18;;;;;;;28.46;44.61;99140.00;5094001;28;20097;-70
2023/07/25 02:05:12;;;;;;;5.93;3.65;;;;;;;28.46;44.56;99129.03;5093943;28;20143;-69
2023/07/25 02:07:40;;;;;;;7.45;3.90;;;;;;;28.43;44.57;99133.09;5093725;28;20043;-70
2023/07/25 02:10:09;;;;;;;7.60;4.10;;;;;;;28.40;44.63;99135.47;5093640;28;20067;-70
2023/07/25 02:12:37;;;;;;;7.32;3.85;;;;;;;28.41;44.99;99159.91;5093951;28;20063;-70
2023/07/25 02:15:07;;;;;;;6.07;3.65;;;;;;;28.41;44.70;99148.13;5093297;28;20118;-70
2023/07/25 02:17:36;;;;;;;6.85;4.05;;;;;;;28.39;44.93;99118.19;5093601;28;20044;-70
2023/07/25 02:20:06;;;;;;;6.65;3.67;;;;;;;28.40;44.54;99136.31;5093396;28;20059;-70
2023/07/25 02:22:35;;;;;;;7.22;3.95;;;;;;;28.39;44.67;99163.97;5093804;28;20087;-69
2023/07/25 02:25:04;;;;;;;7.85;3.50;;;;;;;28.39;45.10;99172.19;5093780;28;20044;-69
2023/07/25 02:27:32;;;;;;;7.22;3.83;;;;;;;28.37;44.98;99180.63;5093508;28;20134;-70
2023/07/25 02:30:00;;;;;;;6.63;4.10;;;;;;;28.38;44.99;99176.03;5093603;28;20044;-69
2023/07/25 02:32:28;;;;;;;7.60;3.88;;;;;;;28.37;44.91;99169.66;5093382;28;20044;-70
2023/07/25 02:34:58;;;;;;;8.23;3.83;;;;;;;28.37;44.72;99163.34;5093440;28;20050;-70
2023/07/25 02:37:27;;;;;;;6.18;3.67;;;;;;;28.37;45.00;99094.78;5093072;28;20434;-69
2023/07/25 02:39:55;;;;;;;8.48;3.95;;;;;;;28.33;45.99;98965.56;5093162;28;20055;-69
2023/07/25 02:42:23;;;;;;;6.72;3.75;;;;;;;28.32;45.54;98985.00;5093171;28;20040;-69
2023/07/25 02:44:51;;;;;;;6.32;3.58;;;;;;;28.32;45.23;99012.41;5093148;28;20052;-70
2023/07/25 02:47:20;;;;;;;7.80;3.80;;;;;;;28.31;45.18;98994.31;5093268;28;20106;-70
2023/07/25 02:49:48;;;;;;;7.45;3.47;;;;;;;28.30;45.30;98979.75;5093133;28;21029;-70
2023/07/25 02:52:18;;;;;;;6.57;3.55;;;;;;;28.31;45.49;98992.41;5093263;28;20054;-70
2023/07/25 02:54:46;;;;;;;7.72;4.15;;;;;;;28.29;45.79;98974.53;5092927;28;20481;-70
2023/07/25 02:57:15;;;;;;;7.13;4.20;;;;;;;28.29;45.36;98978.09;5092998;28;20089;-70
2023/07/25 02:59:43;;;;;;;6.75;3.95;;;;;;;28.28;45.79;98978.28;5092909;28;20143;-70
2023/07/25 03:02:11;;;;;;;7.40;4.10;;;;;;;28.27;45.49;98993.06;5092700;28;20413;-70
2023/07/25 03:04:40;;;;;;;7.53;3.97;;;;;;;28.29;45.56;99032.09;5091808;28;20432;-70
2023/07/25 03:07:08;;;;;;;7.03;4.05;;;;;;;28.27;45.54;99037.75;5092814;28;20044;-70
2023/07/25 03:09:40;;;;;;;7.00;3.53;;;;;;;28.27;45.56;99047.88;5092641;28;20147;-71
2023/07/25 03:12:09;;;;;;;6.30;3.92;;;;;;;28.26;45.51;99068.16;5092691;28;20091;-70
2023/07/25 03:14:37;;;;;;;6.97;3.70;;;;;;;28.26;45.87;99090.09;5092492;28;20078;-71
2023/07/25 03:17:05;;;;;;;7.30;3.65;;;;;;;28.25;45.81;99105.72;5092992;28;20052;-71
2023/07/25 03:19:33;;;;;;;7.55;3.70;;;;;;;28.24;45.54;99093.91;5092685;28;20047;-71
2023/07/25 03:22:01;;;;;;;6.25;3.60;;;;;;;28.23;45.93;99088.66;5092677;28;20044;-70
2023/07/25 03:24:30;;;;;;;6.50;3.75;;;;;;;28.22;45.70;99096.06;5092467;28;20059;-71
2023/07/25 03:26:59;;;;;;;7.05;4.03;;;;;;;28.22;45.86;99097.97;5092387;28;20048;-70
2023/07/25 03:29:28;;;;;;;7.68;4.25;;;;;;;28.20;45.76;99111.06;5092548;28;20125;-71
2023/07/25 03:31:56;;;;;;;6.80;3.45;;;;;;;28.21;45.67;99104.53;5092513;28;20401;-70
2023/07/25 03:34:24;;;;;;;7.72;3.97;;;;;;;28.21;45.90;99101.78;5092290;28;20109;-70
2023/07/25 03:36:52;;;;;;;6.82;3.72;;;;;;;28.19;46.15;99114.88;5092250;28;20131;-71
2023/07/25 03:39:21;;;;;;;6.18;3.42;;;;;;;28.19;46.20;99126.69;5092197;28;20048;-70
2023/07/25 03:41:49;;;;;;;7.07;3.45;;;;;;;28.18;45.91;99122.28;5091998;28;20082;-70
2023/07/25 03:44:20;;;;;;;8.45;4.15;;;;;;;28.18;46.09;99121.41;5092223;28;20044;-70
2023/07/25 03:46:48;;;;;;;6.10;3.60;;;;;;;28.18;45.86;99127.75;5092190;28;20133;-70
2023/07/25 03:49:16;;;;;;;6.40;3.42;;;;;;;28.17;46.21;99106.88;5092077;28;20077;-70
2023/07/25 03:51:44;;;;;;;6.47;3.80;;;;;;;28.17;46.00;99103.28;5092027;28;20048;-70
2023/07/25 03:54:12;;;;;;;6.78;3.60;;;;;;;28.16;46.06;99082.44;5091812;28;20044;-70
2023/07/25 03:56:41;;;;;;;8.07;3.38;;;;;;;28.15;45.89;99092.56;5092046;28;20043;-70
2023/07/25 03:59:09;;;;;;;5.75;3.38;;;;;;;28.15;46.31;99099.97;5092019;28;20436;-70
2023/07/25 04:01:39;;;;;;;7.30;3.58;;;;;;;28.13;46.33;99091.16;5091930;28;20050;-71
2023/07/25 04:04:07;;;;;;;6.25;3.35;;;;;;;28.12;46.34;99084.81;5091726;28;20052;-70
2023/07/25 04:06:36;;;;;;;6.15;3.75;;;;;;;28.14;46.22;99092.81;5091642;28;20133;-70
2023/07/25 04:09:04;;;;;;;6.45;3.47;;;;;;;28.12;45.89;99108.66;5091400;28;20043;-70
2023/07/25 04:11:32;;;;;;;6.28;3.47;;;;;;;28.11;46.00;99104.25;5091820;28;20052;-70
2023/07/25 04:14:01;;;;;;;6.18;3.53;;;;;;;28.10;46.01;99102.59;5091716;28;20048;-71
2023/07/25 04:16:29;;;;;;;6.75;3.67;;;;;;;28.09;46.24;99106.41;5091766;28;20050;-69
2023/07/25 04:18:59;;;;;;;7.15;3.88;;;;;;;28.09;46.40;99095.44;5091595;28;20079;-69
2023/07/25 04:21:27;;;;;;;6.72;3.72;;;;;;;28.08;46.39;99088.25;5091248;28;20052;-69
2023/07/25 04:23:56;;;;;;;7.13;3.47;;;;;;;28.07;46.43;99081.94;5091346;28;20481;-71
2023/07/25 04:26:24;;;;;;;7.07;3.55;;;;;;;28.08;46.17;99088.25;5091739;28;20040;-69
2023/07/25 04:28:52;;;;;;;6.13;3.17;;;;;;;28.06;46.34;99074.78;5091708;28;20040;-71
2023/07/25 04:31:20;;;;;;;6.45;3.40;;;;;;;28.06;46.10;99073.94;5091566;28;20052;-69
2023/07/25 04:33:49;;;;;;;5.57;3.10;;;;;;;28.05;46.42;99080.50;5091489;28;20047;-69
2023/07/25 04:36:18;;;;;;;5.25;2.75;;;;;;;28.05;45.93;99094.22;5091448;28;20473;-70
2023/07/25 04:38:47;;;;;;;6.00;3.35;;;;;;;28.05;45.94;99084.09;5095564;28;20127;-69
2023/07/25 04:41:15;;;;;;;6.55;3.28;;;;;;;28.04;45.98;99081.59;5095678;28;20055;-69
2023/07/25 04:43:43;;;;;;;5.82;3.10;;;;;;;28.04;46.15;99096.13;5095602;28;20436;-70
2023/07/25 04:46:11;;;;;;;7.03;3.13;;;;;;;28.04;45.96;99087.06;5095529;28;20131;-70
2023/07/25 04:48:40;;;;;;;5.65;3.30;;;;;;;28.03;46.44;99093.63;5095236;28;20097;-69
2023/07/25 04:51:08;;;;;;;6.28;3.20;;;;;;;28.02;46.01;99111.13;5095661;28;20044;-69
2023/07/25 04:53:38;;;;;;;5.07;3.00;;;;;;;28.02;46.43;99094.69;5095449;28;20505;-69
2023/07/25 04:56:06;;;;;;;5.75;3.30;;;;;;;28.02;46.33;99106.47;5095541;28;20371;-70
2023/07/25 04:58:34;;;;;;;5.32;3.10;;;;;;;28.00;46.04;99103.16;5094088;28;20048;-70
2023/07/25 05:01:02;;;;;;;6.53;3.28;;;;;;;28.00;46.57;99085.88;5095147;28;20052;-69
2023/07/25 05:03:31;;;;;;;6.03;3.47;;;;;;;27.99;46.45;99079.56;5095236;28;20450;-70
2023/07/25 05:05:59;;;;;;;6.32;3.55;;;;;;;28.00;46.58;99086.69;5095084;28;20653;-69
2023/07/25 05:08:28;;;;;;;5.93;3.20;;;;;;;28.00;46.33;99091.34;5095234;28;20044;-69
2023/07/25 05:10:57;;;;;;;6.63;3.22;;;;;;;27.97;46.33;99073.44;5095011;28;20059;-69
2023/07/25 05:13:28;;;;;;;6.63;3.55;;;;;;;27.99;46.24;99048.53;5094741;28;20044;-69
2023/07/25 05:15:56;;;;;;;5.70;3.17;;;;;;;27.99;46.27;99045.81;5094848;28;20131;-69
2023/07/25 05:18:25;;;;;;;4.85;2.90;;;;;;;27.98;46.79;99057.84;5095061;28;20079;-69
2023/07/25 05:20:53;;;;;;;4.95;3.03;;;;;;;27.97;46.24;99053.44;5094766;28;20089;-69
2023/07/25 05:23:21;;;;;;;6.63;3.25;;;;;;;27.96;46.48;99047.13;5094464;28;20044;-68
2023/07/25 05:25:49;;;;;;;5.82;2.95;;;;;;;27.97;46.78;99054.25;5094588;28;20044;-69
2023/07/25 05:28:20;;;;;;;6.47;3.40;;;;;;;27.95;46.43;99054.50;5094401;28;20044;-69
2023/07/25 05:30:48;;;;;;;6.75;3.20;;;;;;;27.96;46.76;99038.91;5094602;28;20479;-69
2023/07/25 05:33:16;;;;;;;5.07;3.00;;;;;;;27.97;46.46;99053.44;5094596;28;20044;-69
2023/07/25 05:35:44;;;;;;;6.38;3.38;;;;;;;27.95;46.67;99051.75;5094530;28;20048;-69
2023/07/25 05:38:13;;;;;;;5.40;3.15;;;;;;;27.94;46.35;99055.56;5094376;28;20379;-70
2023/07/25 05:40:41;;;;;;;5.03;2.83;;;;;;;27.94;46.35;99052.84;5094193;28;20044;-70
2023/07/25 05:43:11;;;;;;;5.93;2.92;;;;;;;27.93;46.77;99051.16;5094118;28;20131;-68
2023/07/25 05:45:41;;;;;;;5.30;3.00;;;;;;;27.93;46.81;99056.66;5094434;28;20467;-69
2023/07/25 05:48:09;;;;;;;5.13;2.80;;;;;;;27.92;46.83;99041.28;5092942;28;20048;-69
2023/07/25 05:50:37;;;;;;;5.05;3.00;;;;;;;27.92;46.74;99032.22;5094178;28;20413;-70
2023/07/25 05:53:05;;;;;;;7.10;3.38;;;;;;;27.93;46.79;99048.44;5094031;28;20070;-68
2023/07/25 05:55:33;;;;;;;5.72;3.20;;;;;;;27.93;46.43;99055.81;5092427;28;20117;-68
2023/07/25 05:58:01;;;;;;;5.68;3.03;;;;;;;27.93;46.94;99069.50;5094245;28;20127;-67
2023/07/25 06:00:30;;;;;;;5.10;2.72;;;;;;;27.92;46.78;99079.63;5093209;28;20044;-67
2023/07/25 06:02:59;;;;;;;7.13;3.17;;;;;;;27.93;46.45;99086.78;5092921;28;20051;-67
2023/07/25 06:05:30;;;;;;;5.27;2.83;;;;;;;27.92;47.02;99073.31;5093058;28;20056;-68
2023/07/25 06:07:58;;;;;;;6.43;3.17;;;;;;;27.93;46.90;99083.22;5093364;28;20508;-68
2023/07/25 06:10:26;;;;;;;5.80;3.08;;;;;;;27.91;46.47;99083.44;5093556;28;20086;-68
2023/07/25 06:12:54;;;;;;;5.32;2.90;;;;;;;27.91;46.76;99067.00;5093775;28;20052;-67
2023/07/25 06:15:23;;;;;;;5.40;2.85;;;;;;;27.91;46.65;99060.69;5093636;28;20040;-67
2023/07/25 06:17:51;;;;;;;5.63;2.88;;;;;;;27.90;46.45;99059.03;5093621;28;20046;-66
2023/07/25 06:20:21;;;;;;;5.90;3.08;;;;;;;27.90;46.43;99056.28;5093215;28;20504;-67
2023/07/25 06:22:49;;;;;;;4.90;2.90;;;;;;;27.90;46.77;99048.91;5093777;28;20051;-67
2023/07/25 06:25:17;;;;;;;5.70;3.10;;;;;;;27.89;46.86;99047.22;5093492;28;20063;-66
2023/07/25 06:27:45;;;;;;;7.25;3.08;;;;;;;27.89;46.79;99039.00;5093543;28;20130;-68
2023/07/25 06:30:14;;;;;;;5.32;2.92;;;;;;;27.89;46.35;99029.94;5093195;28;20048;-69
2023/07/25 06:32:42;;;;;;;5.78;3.42;;;;;;;27.90;46.53;99032.47;5093222;28;20044;-69
2023/07/25 06:35:10;;;;;;;6.70;2.75;;;;;;;27.88;46.64;99031.84;5093077;28;20174;-69
2023/07/25 06:37:40;;;;;;;6.95;3.42;;;;;;;27.89;46.54;99025.31;5093129;28;20044;-67
2023/07/25 06:40:09;;;;;;;5.80;3.40;;;;;;;27.89;46.69;99014.34;5092956;28;20058;-67
2023/07/25 06:42:38;;;;;;;5.75;2.90;;;;;;;27.89;46.61;99018.97;5092967;28;20052;-69
2023/07/25 06:45:08;;;;;;;6.85;3.35;;;;;;;27.90;46.71;99013.28;5092824;28;20078;-69
2023/07/25 06:47:36;;;;;;;6.38;3.15;;;;;;;27.90;46.19;99009.72;5092886;28;20058;-68
2023/07/25 06:50:05;;;;;;;4.95;2.90;;;;;;;27.89;46.55;99008.88;5092680;28;20417;-68
2023/07/25 06:52:34;;;;;;;7.60;3.20;;;;;;;27.89;46.50;99005.28;5092951;28;20047;-71
2023/07/25 06:55:03;;;;;;;5.40;3.10;;;;;;;27.89;46.23;99003.41;5092754;28;20052;-68
2023/07/25 06:57:32;;;;;;;5.40;2.92;;;;;;;27.91;46.57;98997.69;5092458;28;20139;-70
2023/07/25 07:00:00;;;;;;;6.28;3.25;;;;;;;27.88;46.71;98978.94;5092184;28;20072;-70
2023/07/25 07:02:28;;;;;;;6.50;3.40;;;;;;;27.91;46.49;98983.97;5092426;28;20066;-70
2023/07/25 07:04:57;;;;;;;6.82;3.65;;;;;;;27.91;46.28;98982.06;5092514;28;20040;-70
2023/07/25 07:07:25;;;;;;;5.70;3.00;;;;;;;27.91;46.29;98976.59;5092391;28;20054;-70
2023/07/25 07:09:53;;;;;;;7.05;3.33;;;;;;;27.91;46.49;98973.84;5092453;28;20060;-70
2023/07/25 07:12:23;;;;;;;6.70;3.53;;;;;;;27.92;46.17;98966.47;5092476;28;20054;-70
2023/07/25 07:14:51;;;;;;;6.45;3.00;;;;;;;27.92;46.57;98960.97;5092292;28;20071;-69
2023/07/25 07:17:19;;;;;;;5.97;3.20;;;;;;;27.91;46.57;98949.19;5092202;28;20055;-70
2023/07/25 07:19:48;;;;;;;6.35;3.13;;;;;;;27.93;46.49;98935.25;5092485;28;20047;-69
2023/07/25 07:22:16;;;;;;;6.50;3.13;;;;;;;27.92;46.18;98936.31;5092033;28;20508;-69
2023/07/25 07:24:44;;;;;;;5.93;3.20;;;;;;;27.92;46.61;98948.09;5092032;28;20051;-69
2023/07/25 07:27:12;;;;;;;6.15;3.30;;;;;;;27.93;46.49;98938.81;5092236;28;20437;-68
2023/07/25 07:29:42;;;;;;;5.57;2.92;;;;;;;27.95;46.06;98935.84;5091788;28;20055;-69
2023/07/25 07:32:10;;;;;;;6.57;2.92;;;;;;;27.95;46.40;98938.56;5090999;28;20052;-69
2023/07/25 07:34:38;;;;;;;5.82;3.22;;;;;;;27.95;46.45;98933.94;5092052;28;20182;-69
2023/07/25 07:37:06;;;;;;;7.13;3.40;;;;;;;27.94;46.34;98918.56;5091785;28;20485;-69
2023/07/25 07:39:35;;;;;;;5.95;3.17;;;;;;;27.97;46.50;98924.63;5091848;28;20515;-69
2023/07/25 07:42:04;;;;;;;5.47;2.92;;;;;;;27.97;46.46;98916.41;5091701;28;20459;-71
2023/07/25 07:44:32;;;;;;;5.22;2.78;;;;;;;27.97;46.05;98927.38;5091771;28;20123;-69
2023/07/25 07:47:01;;;;;;;6.18;3.20;;;;;;;27.98;46.04;98918.06;5091931;28;20044;-69
2023/07/25 07:49:29;;;;;;;6.75;3.22;;;;;;;27.99;45.90;98925.22;5091772;28;20050;-69
2023/07/25 07:52:01;;;;;;;6.10;3.03;;;;;;;27.99;46.35;98931.56;5091782;28;20048;-70
2023/07/25 07:54:44;;;;;;;7.28;3.47;;;;;;;28.00;46.19;98932.41;5091366;28;20052;-69
2023/07/25 07:57:12;;;;;;;6.88;3.08;;;;;;;28.01;46.36;98934.06;5091853;28;20059;-69
2023/07/25 07:59:43;;;;;;;5.63;3.17;;;;;;;28.00;46.34;98930.50;5091707;28;20052;-69
2023/07/25 08:02:13;;;;;;;6.65;2.97;;;;;;;28.00;46.31;98922.28;5091713;28;20454;-69
2023/07/25 08:04:43;;;;;;;6.20;3.05;;;;;;;27.99;46.39;98914.25;5091716;28;20071;-70
2023/07/25 08:07:11;;;;;;;6.50;3.30;;;;;;;28.01;46.24;98925.84;5091568;28;20246;-69
2023/07/25 08:09:39;;;;;;;5.90;2.83;;;;;;;28.01;46.19;98928.59;5091308;28;20501;-69
2023/07/25 08:12:08;;;;;;;5.03;3.03;;;;;;;28.02;46.49;98935.72;5090877;28;20105;-69
2023/07/25 08:14:37;;;;;;;6.30;3.28;;;;;;;28.02;46.10;98916.53;5091399;28;20043;-68
2023/07/25 08:17:05;;;;;;;5.90;3.00;;;;;;;28.01;46.02;98918.44;5091743;28;20204;-69
2023/07/25 08:19:34;;;;;;;6.07;3.13;;;;;;;28.03;46.57;98923.69;5091157;28;20048;-69
2023/07/25 08:22:03;;;;;;;6.25;3.35;;;;;;;28.03;46.40;98921.78;5091230;28;20063;-69
2023/07/25 08:24:32;;;;;;;6.80;3.45;;;;;;;28.03;46.58;98916.31;5091651;28;20446;-69
2023/07/25 08:27:00;;;;;;;4.43;2.58;;;;;;;28.01;46.35;98910.22;5091515;28;20052;-69
2023/07/25 08:29:28;;;;;;;6.38;2.92;;;;;;;28.02;46.46;98906.41;5091391;28;20048;-69
2023/07/25 08:31:56;;;;;;;6.45;3.22;;;;;;;28.03;46.66;98896.28;5091505;28;20339;-69
2023/07/25 08:34:25;;;;;;;5.25;3.22;;;;;;;28.04;46.68;98895.22;5091341;28;20498;-69
2023/07/25 08:36:54;;;;;;;5.78;3.08;;;;;;;28.03;46.38;98888.06;5091107;28;20048;-69
2023/07/25 08:39:22;;;;;;;7.22;3.45;;;;;;;28.05;46.45;98902.34;5091358;28;20040;-68
2023/07/25 08:41:53;;;;;;;6.07;2.90;;;;;;;28.04;46.94;98897.94;5091314;28;20140;-68
2023/07/25 08:44:22;;;;;;;5.68;2.90;;;;;;;28.04;46.81;98900.69;5091212;28;20044;-68
2023/07/25 08:46:52;;;;;;;6.25;2.80;;;;;;;28.04;46.63;98908.91;5089761;28;20551;-68
2023/07/25 08:49:23;;;;;;;6.07;3.40;;;;;;;28.05;46.58;98910.59;5091284;28;20048;-68
2023/07/25 08:51:58;;;;;;;5.93;3.08;;;;;;;28.04;46.76;98917.13;5091100;28;20052;-68
2023/07/25 08:54:30;;;;;;;7.25;3.28;;;;;;;28.04;46.86;98928.09;5091250;28;20140;-68
2023/07/25 08:56:59;;;;;;;5.95;2.88;;;;;;;28.04;46.87;98922.63;5091059;28;20048;-71
2023/07/25 08:59:28;;;;;;;4.85;2.72;;;;;;;28.04;46.97;98923.44;5091162;28;20044;-69
2023/07/25 09:01:57;;;;;;;5.50;2.90;;;;;;;28.04;47.36;98948.13;5091126;28;20044;-68
2023/07/25 09:04:27;;;;;;;6.20;2.85;;;;;;;28.03;47.34;98964.81;5091489;28;20044;-67
2023/07/25 09:06:57;;;;;;;5.40;2.63;;;;;;;28.05;47.19;98959.91;5091067;28;20076;-69
2023/07/25 09:09:25;;;;;;;5.28;3.05;;;;;;;28.04;47.46;98966.47;5089664;28;20055;-70
2023/07/25 09:11:55;;;;;;;5.82;3.03;;;;;;;28.05;47.67;98995.53;5091362;28;20048;-69
2023/07/25 09:14:23;;;;;;;7.32;3.10;;;;;;;28.04;47.32;99044.03;5090761;28;20394;-69
2023/07/25 09:16:52;;;;;;;5.55;2.92;;;;;;;28.05;47.95;99086.81;5091065;28;20444;-69
2023/07/25 09:19:21;;;;;;;5.57;2.80;;;;;;;28.05;47.67;99149.03;5091043;28;20067;-69
2023/07/25 09:21:53;;;;;;;5.90;2.80;;;;;;;28.06;48.30;99247.47;5090788;28;20048;-70
2023/07/25 09:24:23;;;;;;;6.75;3.22;;;;;;;28.06;48.53;99287.75;5094277;28;20121;-71
2023/07/25 09:26:53;;;;;;;6.35;3.10;;;;;;;28.04;48.51;99230.41;5094469;28;20052;-71
2023/07/25 09:29:26;;;;;;;5.68;2.90;;;;;;;28.04;49.06;99210.41;5094462;28;20473;-70
2023/07/25 09:31:55;;;;;;;6.13;3.10;;;;;;;28.02;49.47;99220.75;5094732;28;20097;-70
2023/07/25 09:34:24;;;;;;;6.63;2.70;;;;;;;27.99;49.98;99226.69;5094916;28;20044;-70
2023/07/25 09:36:53;;;;;;;6.03;2.90;;;;;;;27.97;49.67;99206.91;5094387;28;20074;-70
2023/07/25 09:39:21;;;;;;;7.35;3.05;;;;;;;27.95;49.98;99205.22;5094255;28;20056;-70
2023/07/25 09:41:51;;;;;;;5.65;2.83;;;;;;;27.92;49.79;99202.97;5094180;28;20117;-69
2023/07/25 09:44:20;;;;;;;6.55;2.83;;;;;;;27.95;50.13;99198.91;5094219;28;20056;-69
2023/07/25 09:46:54;;;;;;;7.55;3.17;;;;;;;27.94;49.59;99176.16;5094116;28;20532;-68
2023/07/25 09:49:23;;;;;;;6.60;3.00;;;;;;;27.92;50.07;99189.25;5094198;28;20472;-68
2023/07/25 09:52:02;;;;;;;6.68;3.10;;;;;;;27.92;50.03;99183.78;5094156;28;20062;-69
2023/07/25 09:54:31;;;;;;;5.15;2.83;;;;;;;27.92;49.48;99161.00;5094153;28;20051;-69
2023/07/25 09:57:01;;;;;;;5.78;3.05;;;;;;;27.92;49.93;99136.34;5094301;28;20075;-69
2023/07/25 09:59:31;;;;;;;5.93;3.10;;;;;;;27.92;49.54;99111.69;5094201;28;20044;-69
2023/07/25 10:01:59;;;;;;;6.88;2.80;;;;;;;27.92;49.75;99095.25;5094155;28;20044;-69
2023/07/25 10:04:28;;;;;;;4.80;2.67;;;;;;;27.91;49.25;99077.97;5093791;28;20052;-69
2023/07/25 10:06:59;;;;;;;5.38;2.88;;;;;;;27.92;49.31;99079.63;5094029;28;20113;-69
2023/07/25 10:09:29;;;;;;;4.85;2.72;;;;;;;27.93;49.54;99080.47;5093845;28;20146;-69
2023/07/25 10:11:57;;;;;;;6.35;3.30;;;;;;;27.91;49.48;99083.44;5093910;28;20048;-69
2023/07/25 10:14:27;;;;;;;5.40;3.10;;;;;;;27.92;49.08;99090.59;5093899;28;20055;-69
2023/07/25 10:16:55;;;;;;;5.32;2.55;;;;;;;27.93;49.19;99103.22;5093510;28;20044;-69
2023/07/25 10:19:24;;;;;;;4.90;2.80;;;;;;;27.92;49.50;99131.72;5093736;28;20044;-69
2023/07/25 10:21:53;;;;;;;5.63;3.00;;;;;;;27.93;48.97;99129.81;5093803;28;20044;-69
2023/07/25 10:24:22;;;;;;;5.65;2.85;;;;;;;27.91;49.15;99116.34;5093745;28;20242;-69
2023/07/25 10:26:57;;;;;;;5.63;3.10;;;;;;;27.92;48.91;99120.75;5093454;28;20040;-69
2023/07/25 10:29:42;;;;;;;5.40;3.10;;;;;;;27.93;48.97;99118.84;5093254;28;20048;-69
2023/07/25 10:32:13;;;;;;;6.00;3.03;;;;;;;27.92;48.92;99123.50;5093555;28;20093;-69
2023/07/25 10:34:47;;;;;;;6.00;3.00;;;;;;;27.92;49.07;99150.06;5092625;28;20047;-69
2023/07/25 10:37:27;;;;;;;6.88;2.97;;;;;;;27.92;49.10;99159.13;5093271;28;20134;-69
2023/07/25 10:40:09;;;;;;;4.97;2.50;;;;;;;27.91;49.55;99137.44;5092965;28;20048;-69
2023/07/25 10:42:49;;;;;;;5.50;2.90;;;;;;;27.92;49.13;99118.00;5093558;28;20131;-69
2023/07/25 10:45:52;;;;;;;5.43;2.78;;;;;;;27.90;48.95;99087.25;5093158;28;20055;-68
2023/07/25 10:48:43;;;;;;;5.47;2.80;;;;;;;27.89;49.04;99080.13;5092945;28;20481;-68
2023/07/25 10:51:12;;;;;;;5.18;2.80;;;;;;;27.90;49.64;99059.03;5092988;28;20093;-69
2023/07/25 10:53:41;;;;;;;4.82;2.65;;;;;;;27.89;49.05;99058.19;5092914;28;20475;-68
2023/07/25 10:56:12;;;;;;;5.70;2.95;;;;;;;27.89;49.52;99046.38;5092709;28;20048;-69
2023/07/25 10:58:55;;;;;;;5.57;3.00;;;;;;;27.89;49.64;99041.75;5092544;28;20055;-70
2023/07/25 11:01:46;;;;;;;5.00;2.95;;;;;;;27.90;49.14;99046.16;5092537;28;20084;-71
2023/07/25 11:04:25;;;;;;;5.47;3.17;;;;;;;27.91;49.57;99063.44;5092688;28;20105;-70
2023/07/25 11:06:55;;;;;;;5.35;2.88;;;;;;;27.92;49.34;99078.81;5092492;28;20059;-70
2023/07/25 11:09:24;;;;;;;4.95;2.50;;;;;;;27.92;49.66;99068.69;5092391;28;20146;-69
2023/07/25 11:11:55;;;;;;;5.78;3.30;;;;;;;27.91;49.31;99058.78;5092845;28;20101;-70
2023/07/25 11:14:23;;;;;;;5.07;2.85;;;;;;;27.92;49.30;99034.97;5092637;28;20048;-70
2023/07/25 11:16:55;;;;;;;4.45;2.60;;;;;;;27.91;49.63;99017.69;5092607;28;20101;-69
2023/07/25 11:19:28;;;;;;;5.40;2.80;;;;;;;27.90;49.23;98985.88;5092406;28;20066;-70
2023/07/25 11:21:59;;;;;;;5.65;2.92;;;;;;;27.91;49.20;98970.28;5092734;28;20048;-70
2023/07/25 11:24:27;;;;;;;4.68;2.80;;;;;;;27.91;49.62;98953.84;5092544;28;20075;-70
2023/07/25 11:26:56;;;;;;;5.65;2.92;;;;;;;27.92;49.29;98937.16;5092495;28;20052;-69
2023/07/25 11:29:24;;;;;;;5.60;3.03;;;;;;;27.92;49.73;98944.53;5092345;28;20047;-70
2023/07/25 11:31:53;;;;;;;4.78;2.75;;;;;;;27.93;49.23;98944.28;5092257;28;20039;-70
2023/07/25 11:34:21;;;;;;;6.18;3.13;;;;;;;27.93;49.43;98938.81;5092217;28;20040;-69
2023/07/25 11:36:50;;;;;;;4.25;2.65;;;;;;;27.93;49.34;98932.50;5092421;28;20143;-70
2023/07/25 11:39:19;;;;;;;5.93;3.28;;;;;;;27.93;49.59;98927.84;5092556;28;20050;-70
2023/07/25 11:41:47;;;;;;;4.95;3.00;;;;;;;27.94;49.56;98929.53;5091999;28;20446;-70
2023/07/25 11:44:17;;;;;;;4.55;2.80;;;;;;;27.94;49.34;98929.53;5092436;28;20101;-70